sensor_id;sensor_type;location;lat;lon;timestamp;P1;durP1;ratioP1;P2;durP2;ratioP2
47531;SDS011;33273;52.254;7.988;2023-06-26T00:00:23;10.20;;;8.35;;
47531;SDS011;33273;52.254;7.988;2023-06-26T00:02:49;9.50;;;8.27;;
47531;SDS011;33273;52.254;7.988;2023-06-26T00:05:15;10.32;;;7.82;;
47531;SDS011;33273;52.254;7.988;2023-06-26T00:07:41;9.63;;;7.90;;
47531;SDS011;33273;52.254;7.988;2023-06-26T00:10:07;8.85;;;7.82;;
47531;SDS011;33273;52.254;7.988;2023-06-26T00:12:34;8.48;;;7.57;;
47531;SDS011;33273;52.254;7.988;2023-06-26T00:15:00;7.85;;;6.95;;
47531;SDS011;33273;52.254;7.988;2023-06-26T00:17:26;8.50;;;7.60;;
47531;SDS011;33273;52.254;7.988;2023-06-26T00:19:52;8.83;;;7.50;;
47531;SDS011;33273;52.254;7.988;2023-06-26T00:22:18;9.13;;;7.87;;
47531;SDS011;33273;52.254;7.988;2023-06-26T00:24:44;9.30;;;7.88;;
47531;SDS011;33273;52.254;7.988;2023-06-26T00:27:10;9.68;;;7.95;;
47531;SDS011;33273;52.254;7.988;2023-06-26T00:29:36;7.80;;;7.00;;
47531;SDS011;33273;52.254;7.988;2023-06-26T00:32:03;9.63;;;7.80;;
47531;SDS011;33273;52.254;7.988;2023-06-26T00:34:32;8.82;;;7.50;;
47531;SDS011;33273;52.254;7.988;2023-06-26T00:36:58;8.85;;;7.53;;
47531;SDS011;33273;52.254;7.988;2023-06-26T00:39:25;9.88;;;7.43;;
47531;SDS011;33273;52.254;7.988;2023-06-26T00:41:51;8.90;;;7.65;;
47531;SDS011;33273;52.254;7.988;2023-06-26T00:44:19;9.60;;;8.38;;
47531;SDS011;33273;52.254;7.988;2023-06-26T00:46:47;9.27;;;7.88;;
47531;SDS011;33273;52.254;7.988;2023-06-26T00:49:13;8.73;;;7.82;;
47531;SDS011;33273;52.254;7.988;2023-06-26T00:51:39;10.00;;;8.20;;
47531;SDS011;33273;52.254;7.988;2023-06-26T00:54:06;9.48;;;7.72;;
47531;SDS011;33273;52.254;7.988;2023-06-26T00:56:32;9.30;;;8.07;;
47531;SDS011;33273;52.254;7.988;2023-06-26T00:59:00;8.95;;;8.00;;
47531;SDS011;33273;52.254;7.988;2023-06-26T01:01:26;9.85;;;8.00;;
47531;SDS011;33273;52.254;7.988;2023-06-26T01:03:53;10.13;;;8.03;;
47531;SDS011;33273;52.254;7.988;2023-06-26T01:06:21;8.40;;;7.43;;
47531;SDS011;33273;52.254;7.988;2023-06-26T01:08:48;9.48;;;8.45;;
47531;SDS011;33273;52.254;7.988;2023-06-26T01:11:16;9.57;;;8.57;;
47531;SDS011;33273;52.254;7.988;2023-06-26T01:13:42;9.88;;;8.27;;
47531;SDS011;33273;52.254;7.988;2023-06-26T01:16:11;9.68;;;8.20;;
47531;SDS011;33273;52.254;7.988;2023-06-26T01:18:40;9.55;;;7.80;;
47531;SDS011;33273;52.254;7.988;2023-06-26T01:21:08;9.23;;;8.23;;
47531;SDS011;33273;52.254;7.988;2023-06-26T01:28:44;11.07;;;8.27;;
47531;SDS011;33273;52.254;7.988;2023-06-26T01:31:11;8.98;;;8.07;;
47531;SDS011;33273;52.254;7.988;2023-06-26T01:33:38;8.85;;;7.95;;
47531;SDS011;33273;52.254;7.988;2023-06-26T01:36:07;8.98;;;8.07;;
47531;SDS011;33273;52.254;7.988;2023-06-26T01:38:34;8.85;;;7.90;;
47531;SDS011;33273;52.254;7.988;2023-06-26T01:41:00;9.25;;;8.00;;
47531;SDS011;33273;52.254;7.988;2023-06-26T01:43:33;8.83;;;7.93;;
47531;SDS011;33273;52.254;7.988;2023-06-26T01:46:27;11.27;;;8.05;;
47531;SDS011;33273;52.254;7.988;2023-06-26T01:57:43;9.87;;;8.37;;
47531;SDS011;33273;52.254;7.988;2023-06-26T02:00:14;9.20;;;7.95;;
47531;SDS011;33273;52.254;7.988;2023-06-26T02:02:43;9.82;;;8.35;;
47531;SDS011;33273;52.254;7.988;2023-06-26T02:05:12;8.60;;;7.70;;
47531;SDS011;33273;52.254;7.988;2023-06-26T02:07:38;10.23;;;8.93;;
47531;SDS011;33273;52.254;7.988;2023-06-26T02:10:05;9.80;;;8.80;;
47531;SDS011;33273;52.254;7.988;2023-06-26T02:12:32;10.17;;;8.97;;
47531;SDS011;33273;52.254;7.988;2023-06-26T02:14:59;9.27;;;8.17;;
47531;SDS011;33273;52.254;7.988;2023-06-26T02:17:24;9.80;;;8.40;;
47531;SDS011;33273;52.254;7.988;2023-06-26T02:19:53;10.00;;;8.98;;
47531;SDS011;33273;52.254;7.988;2023-06-26T02:22:19;10.15;;;8.35;;
47531;SDS011;33273;52.254;7.988;2023-06-26T02:24:47;10.60;;;8.48;;
47531;SDS011;33273;52.254;7.988;2023-06-26T02:27:14;11.95;;;8.82;;
47531;SDS011;33273;52.254;7.988;2023-06-26T02:29:40;9.27;;;8.23;;
47531;SDS011;33273;52.254;7.988;2023-06-26T02:32:08;9.93;;;8.38;;
47531;SDS011;33273;52.254;7.988;2023-06-26T02:34:34;10.18;;;8.15;;
47531;SDS011;33273;52.254;7.988;2023-06-26T02:37:00;9.13;;;8.20;;
47531;SDS011;33273;52.254;7.988;2023-06-26T02:39:27;9.38;;;8.25;;
47531;SDS011;33273;52.254;7.988;2023-06-26T02:41:54;8.93;;;7.53;;
47531;SDS011;33273;52.254;7.988;2023-06-26T02:44:23;11.40;;;8.10;;
47531;SDS011;33273;52.254;7.988;2023-06-26T02:46:48;9.10;;;7.95;;
47531;SDS011;33273;52.254;7.988;2023-06-26T02:49:15;9.80;;;7.97;;
47531;SDS011;33273;52.254;7.988;2023-06-26T02:51:43;8.77;;;7.45;;
47531;SDS011;33273;52.254;7.988;2023-06-26T02:54:19;8.80;;;7.55;;
47531;SDS011;33273;52.254;7.988;2023-06-26T02:56:47;9.30;;;7.70;;
47531;SDS011;33273;52.254;7.988;2023-06-26T02:59:14;8.67;;;7.53;;
47531;SDS011;33273;52.254;7.988;2023-06-26T03:01:40;9.43;;;7.47;;
47531;SDS011;33273;52.254;7.988;2023-06-26T03:04:06;10.25;;;7.80;;
47531;SDS011;33273;52.254;7.988;2023-06-26T03:06:33;9.03;;;7.40;;
47531;SDS011;33273;52.254;7.988;2023-06-26T03:08:59;8.97;;;7.13;;
47531;SDS011;33273;52.254;7.988;2023-06-26T03:11:26;12.40;;;7.22;;
47531;SDS011;33273;52.254;7.988;2023-06-26T03:13:54;9.73;;;7.13;;
47531;SDS011;33273;52.254;7.988;2023-06-26T03:16:20;8.57;;;7.28;;
47531;SDS011;33273;52.254;7.988;2023-06-26T03:18:46;8.50;;;7.10;;
47531;SDS011;33273;52.254;7.988;2023-06-26T03:21:12;8.15;;;7.35;;
47531;SDS011;33273;52.254;7.988;2023-06-26T03:23:38;8.90;;;7.35;;
47531;SDS011;33273;52.254;7.988;2023-06-26T03:26:04;8.60;;;7.10;;
47531;SDS011;33273;52.254;7.988;2023-06-26T03:28:33;10.45;;;7.75;;
47531;SDS011;33273;52.254;7.988;2023-06-26T03:30:59;9.05;;;7.07;;
47531;SDS011;33273;52.254;7.988;2023-06-26T03:33:25;9.40;;;7.30;;
47531;SDS011;33273;52.254;7.988;2023-06-26T03:35:52;8.52;;;6.97;;
47531;SDS011;33273;52.254;7.988;2023-06-26T03:38:19;8.90;;;7.25;;
47531;SDS011;33273;52.254;7.988;2023-06-26T03:40:46;9.65;;;7.78;;
47531;SDS011;33273;52.254;7.988;2023-06-26T03:43:11;8.73;;;7.03;;
47531;SDS011;33273;52.254;7.988;2023-06-26T03:45:52;8.40;;;7.10;;
47531;SDS011;33273;52.254;7.988;2023-06-26T03:48:18;8.88;;;7.40;;
47531;SDS011;33273;52.254;7.988;2023-06-26T03:50:45;8.18;;;6.95;;
47531;SDS011;33273;52.254;7.988;2023-06-26T03:53:10;8.60;;;6.93;;
47531;SDS011;33273;52.254;7.988;2023-06-26T03:55:39;10.43;;;7.13;;
47531;SDS011;33273;52.254;7.988;2023-06-26T03:58:05;9.07;;;7.03;;
47531;SDS011;33273;52.254;7.988;2023-06-26T04:00:32;7.70;;;6.68;;
47531;SDS011;33273;52.254;7.988;2023-06-26T04:02:57;10.40;;;6.95;;
47531;SDS011;33273;52.254;7.988;2023-06-26T04:05:24;9.00;;;7.40;;
47531;SDS011;33273;52.254;7.988;2023-06-26T04:07:50;8.17;;;6.60;;
47531;SDS011;33273;52.254;7.988;2023-06-26T04:10:17;10.15;;;7.00;;
47531;SDS011;33273;52.254;7.988;2023-06-26T04:12:43;13.60;;;7.85;;
47531;SDS011;33273;52.254;7.988;2023-06-26T04:15:09;9.35;;;7.22;;
47531;SDS011;33273;52.254;7.988;2023-06-26T04:17:36;8.30;;;6.20;;
47531;SDS011;33273;52.254;7.988;2023-06-26T04:20:02;8.73;;;6.77;;
47531;SDS011;33273;52.254;7.988;2023-06-26T04:22:31;9.55;;;6.82;;
47531;SDS011;33273;52.254;7.988;2023-06-26T04:24:58;10.13;;;6.82;;
47531;SDS011;33273;52.254;7.988;2023-06-26T04:27:25;7.97;;;6.80;;
47531;SDS011;33273;52.254;7.988;2023-06-26T04:29:51;8.27;;;6.73;;
47531;SDS011;33273;52.254;7.988;2023-06-26T04:32:17;9.20;;;6.22;;
47531;SDS011;33273;52.254;7.988;2023-06-26T04:34:43;7.50;;;6.50;;
47531;SDS011;33273;52.254;7.988;2023-06-26T04:37:09;9.85;;;6.50;;
47531;SDS011;33273;52.254;7.988;2023-06-26T04:39:36;8.93;;;6.43;;
47531;SDS011;33273;52.254;7.988;2023-06-26T04:42:02;10.10;;;6.55;;
47531;SDS011;33273;52.254;7.988;2023-06-26T04:44:29;7.63;;;6.28;;
47531;SDS011;33273;52.254;7.988;2023-06-26T04:46:55;7.85;;;6.25;;
47531;SDS011;33273;52.254;7.988;2023-06-26T04:49:22;8.32;;;6.32;;
47531;SDS011;33273;52.254;7.988;2023-06-26T04:51:49;10.13;;;6.93;;
47531;SDS011;33273;52.254;7.988;2023-06-26T04:54:16;9.77;;;6.50;;
47531;SDS011;33273;52.254;7.988;2023-06-26T04:56:42;10.00;;;6.70;;
47531;SDS011;33273;52.254;7.988;2023-06-26T04:59:10;8.18;;;6.40;;
47531;SDS011;33273;52.254;7.988;2023-06-26T05:01:39;7.97;;;6.60;;
47531;SDS011;33273;52.254;7.988;2023-06-26T05:04:05;8.00;;;6.10;;
47531;SDS011;33273;52.254;7.988;2023-06-26T05:06:31;8.77;;;6.20;;
47531;SDS011;33273;52.254;7.988;2023-06-26T05:08:58;9.45;;;6.80;;
47531;SDS011;33273;52.254;7.988;2023-06-26T05:11:24;8.32;;;6.32;;
47531;SDS011;33273;52.254;7.988;2023-06-26T05:13:50;8.23;;;6.43;;
47531;SDS011;33273;52.254;7.988;2023-06-26T05:16:17;9.40;;;6.40;;
47531;SDS011;33273;52.254;7.988;2023-06-26T05:18:43;8.45;;;6.63;;
47531;SDS011;33273;52.254;7.988;2023-06-26T05:21:09;8.67;;;6.40;;
47531;SDS011;33273;52.254;7.988;2023-06-26T05:23:35;9.50;;;6.82;;
47531;SDS011;33273;52.254;7.988;2023-06-26T05:26:01;9.20;;;6.47;;
47531;SDS011;33273;52.254;7.988;2023-06-26T05:28:28;7.70;;;6.80;;
47531;SDS011;33273;52.254;7.988;2023-06-26T05:30:56;10.40;;;6.83;;
47531;SDS011;33273;52.254;7.988;2023-06-26T05:33:23;10.27;;;7.57;;
47531;SDS011;33273;52.254;7.988;2023-06-26T05:35:51;9.57;;;7.22;;
47531;SDS011;33273;52.254;7.988;2023-06-26T05:38:18;9.55;;;7.70;;
47531;SDS011;33273;52.254;7.988;2023-06-26T05:40:45;10.32;;;6.90;;
47531;SDS011;33273;52.254;7.988;2023-06-26T05:43:11;10.05;;;7.55;;
47531;SDS011;33273;52.254;7.988;2023-06-26T05:45:38;8.27;;;7.35;;
47531;SDS011;33273;52.254;7.988;2023-06-26T05:48:04;8.63;;;7.40;;
47531;SDS011;33273;52.254;7.988;2023-06-26T05:50:30;10.75;;;8.10;;
47531;SDS011;33273;52.254;7.988;2023-06-26T05:52:59;13.27;;;8.15;;
47531;SDS011;33273;52.254;7.988;2023-06-26T05:55:28;9.77;;;8.00;;
47531;SDS011;33273;52.254;7.988;2023-06-26T05:57:54;9.90;;;8.20;;
47531;SDS011;33273;52.254;7.988;2023-06-26T06:00:23;9.88;;;7.80;;
47531;SDS011;33273;52.254;7.988;2023-06-26T06:02:52;9.47;;;8.27;;
47531;SDS011;33273;52.254;7.988;2023-06-26T06:05:22;9.07;;;7.97;;
47531;SDS011;33273;52.254;7.988;2023-06-26T06:07:48;12.05;;;9.05;;
47531;SDS011;33273;52.254;7.988;2023-06-26T06:10:14;10.88;;;8.68;;
47531;SDS011;33273;52.254;7.988;2023-06-26T06:12:40;10.10;;;8.68;;
47531;SDS011;33273;52.254;7.988;2023-06-26T06:15:06;10.38;;;8.65;;
47531;SDS011;33273;52.254;7.988;2023-06-26T06:17:33;11.55;;;8.80;;
47531;SDS011;33273;52.254;7.988;2023-06-26T06:19:58;9.67;;;8.43;;
47531;SDS011;33273;52.254;7.988;2023-06-26T06:22:24;12.57;;;9.17;;
47531;SDS011;33273;52.254;7.988;2023-06-26T06:24:50;10.80;;;8.57;;
47531;SDS011;33273;52.254;7.988;2023-06-26T06:27:16;11.43;;;9.00;;
47531;SDS011;33273;52.254;7.988;2023-06-26T06:29:42;10.18;;;8.85;;
47531;SDS011;33273;52.254;7.988;2023-06-26T06:32:08;9.98;;;8.45;;
47531;SDS011;33273;52.254;7.988;2023-06-26T06:34:34;10.45;;;8.70;;
47531;SDS011;33273;52.254;7.988;2023-06-26T06:37:00;9.65;;;8.55;;
47531;SDS011;33273;52.254;7.988;2023-06-26T06:39:27;11.05;;;8.85;;
47531;SDS011;33273;52.254;7.988;2023-06-26T06:41:55;9.52;;;8.27;;
47531;SDS011;33273;52.254;7.988;2023-06-26T06:44:20;11.00;;;8.70;;
47531;SDS011;33273;52.254;7.988;2023-06-26T06:46:47;12.90;;;8.57;;
47531;SDS011;33273;52.254;7.988;2023-06-26T06:49:13;10.82;;;8.30;;
47531;SDS011;33273;52.254;7.988;2023-06-26T06:51:39;9.68;;;8.18;;
47531;SDS011;33273;52.254;7.988;2023-06-26T06:54:05;10.20;;;9.10;;
47531;SDS011;33273;52.254;7.988;2023-06-26T06:56:30;11.02;;;8.70;;
47531;SDS011;33273;52.254;7.988;2023-06-26T06:58:56;10.80;;;8.93;;
47531;SDS011;33273;52.254;7.988;2023-06-26T07:01:22;10.23;;;8.05;;
47531;SDS011;33273;52.254;7.988;2023-06-26T07:03:48;11.98;;;9.10;;
47531;SDS011;33273;52.254;7.988;2023-06-26T07:06:14;9.40;;;8.10;;
47531;SDS011;33273;52.254;7.988;2023-06-26T07:08:40;9.33;;;8.13;;
47531;SDS011;33273;52.254;7.988;2023-06-26T07:11:05;11.00;;;8.00;;
47531;SDS011;33273;52.254;7.988;2023-06-26T07:13:31;10.70;;;7.57;;
47531;SDS011;33273;52.254;7.988;2023-06-26T07:15:57;11.68;;;8.60;;
47531;SDS011;33273;52.254;7.988;2023-06-26T07:18:23;10.07;;;7.75;;
47531;SDS011;33273;52.254;7.988;2023-06-26T07:20:48;11.55;;;7.55;;
47531;SDS011;33273;52.254;7.988;2023-06-26T07:23:14;10.90;;;8.48;;
47531;SDS011;33273;52.254;7.988;2023-06-26T07:25:40;12.93;;;9.13;;
47531;SDS011;33273;52.254;7.988;2023-06-26T07:28:09;11.98;;;8.10;;
47531;SDS011;33273;52.254;7.988;2023-06-26T07:30:36;11.73;;;7.93;;
47531;SDS011;33273;52.254;7.988;2023-06-26T07:33:02;10.20;;;7.68;;
47531;SDS011;33273;52.254;7.988;2023-06-26T07:35:28;10.38;;;7.20;;
47531;SDS011;33273;52.254;7.988;2023-06-26T07:37:54;12.00;;;7.18;;
47531;SDS011;33273;52.254;7.988;2023-06-26T07:40:20;13.45;;;7.13;;
47531;SDS011;33273;52.254;7.988;2023-06-26T07:42:47;11.68;;;7.45;;
47531;SDS011;33273;52.254;7.988;2023-06-26T07:45:13;11.65;;;7.47;;
47531;SDS011;33273;52.254;7.988;2023-06-26T07:47:39;12.00;;;7.87;;
47531;SDS011;33273;52.254;7.988;2023-06-26T07:50:06;11.30;;;7.55;;
47531;SDS011;33273;52.254;7.988;2023-06-26T07:52:31;10.75;;;7.13;;
47531;SDS011;33273;52.254;7.988;2023-06-26T07:54:58;12.95;;;7.07;;
47531;SDS011;33273;52.254;7.988;2023-06-26T07:57:24;10.82;;;6.63;;
47531;SDS011;33273;52.254;7.988;2023-06-26T07:59:50;9.98;;;6.70;;
47531;SDS011;33273;52.254;7.988;2023-06-26T08:02:16;14.77;;;6.88;;
47531;SDS011;33273;52.254;7.988;2023-06-26T08:04:43;11.27;;;6.73;;
47531;SDS011;33273;52.254;7.988;2023-06-26T08:07:09;11.07;;;6.53;;
47531;SDS011;33273;52.254;7.988;2023-06-26T08:09:36;11.05;;;6.60;;
47531;SDS011;33273;52.254;7.988;2023-06-26T08:12:02;10.85;;;6.35;;
47531;SDS011;33273;52.254;7.988;2023-06-26T08:14:28;10.43;;;6.43;;
47531;SDS011;33273;52.254;7.988;2023-06-26T08:16:54;10.52;;;5.72;;
47531;SDS011;33273;52.254;7.988;2023-06-26T08:19:20;10.13;;;5.82;;
47531;SDS011;33273;52.254;7.988;2023-06-26T08:21:46;9.48;;;6.20;;
47531;SDS011;33273;52.254;7.988;2023-06-26T08:24:12;9.67;;;5.77;;
47531;SDS011;33273;52.254;7.988;2023-06-26T08:26:38;13.38;;;5.30;;
47531;SDS011;33273;52.254;7.988;2023-06-26T08:29:04;9.35;;;5.38;;
47531;SDS011;33273;52.254;7.988;2023-06-26T08:31:33;10.10;;;5.93;;
47531;SDS011;33273;52.254;7.988;2023-06-26T08:34:04;10.50;;;5.95;;
47531;SDS011;33273;52.254;7.988;2023-06-26T08:36:30;9.15;;;5.80;;
47531;SDS011;33273;52.254;7.988;2023-06-26T08:38:57;12.18;;;5.80;;
47531;SDS011;33273;52.254;7.988;2023-06-26T08:41:23;13.02;;;5.95;;
47531;SDS011;33273;52.254;7.988;2023-06-26T08:43:49;10.20;;;6.15;;
47531;SDS011;33273;52.254;7.988;2023-06-26T08:46:16;9.60;;;5.50;;
47531;SDS011;33273;52.254;7.988;2023-06-26T08:48:45;9.57;;;6.13;;
47531;SDS011;33273;52.254;7.988;2023-06-26T08:51:19;9.43;;;6.10;;
47531;SDS011;33273;52.254;7.988;2023-06-26T08:56:31;10.43;;;6.20;;
47531;SDS011;33273;52.254;7.988;2023-06-26T08:59:01;16.40;;;6.80;;
47531;SDS011;33273;52.254;7.988;2023-06-26T09:01:27;10.32;;;5.90;;
47531;SDS011;33273;52.254;7.988;2023-06-26T09:03:53;10.47;;;5.70;;
47531;SDS011;33273;52.254;7.988;2023-06-26T09:06:19;9.20;;;5.85;;
47531;SDS011;33273;52.254;7.988;2023-06-26T09:08:45;9.85;;;5.80;;
47531;SDS011;33273;52.254;7.988;2023-06-26T09:11:11;10.73;;;6.03;;
47531;SDS011;33273;52.254;7.988;2023-06-26T09:13:37;11.85;;;6.13;;
47531;SDS011;33273;52.254;7.988;2023-06-26T09:16:05;8.95;;;5.47;;
47531;SDS011;33273;52.254;7.988;2023-06-26T09:18:33;8.38;;;5.50;;
47531;SDS011;33273;52.254;7.988;2023-06-26T09:20:59;9.88;;;5.72;;
47531;SDS011;33273;52.254;7.988;2023-06-26T09:23:29;11.23;;;5.55;;
47531;SDS011;33273;52.254;7.988;2023-06-26T09:25:58;9.13;;;5.05;;
47531;SDS011;33273;52.254;7.988;2023-06-26T09:28:24;7.90;;;4.40;;
47531;SDS011;33273;52.254;7.988;2023-06-26T09:30:50;5.72;;;3.78;;
47531;SDS011;33273;52.254;7.988;2023-06-26T09:33:17;8.10;;;3.65;;
47531;SDS011;33273;52.254;7.988;2023-06-26T09:35:44;6.43;;;3.95;;
47531;SDS011;33273;52.254;7.988;2023-06-26T09:38:11;8.02;;;4.35;;
47531;SDS011;33273;52.254;7.988;2023-06-26T09:40:38;5.78;;;3.85;;
47531;SDS011;33273;52.254;7.988;2023-06-26T09:43:08;7.15;;;4.00;;
47531;SDS011;33273;52.254;7.988;2023-06-26T09:45:39;8.82;;;4.30;;
47531;SDS011;33273;52.254;7.988;2023-06-26T09:48:06;7.38;;;4.45;;
47531;SDS011;33273;52.254;7.988;2023-06-26T09:50:36;6.67;;;4.10;;
47531;SDS011;33273;52.254;7.988;2023-06-26T09:53:10;6.68;;;3.88;;
47531;SDS011;33273;52.254;7.988;2023-06-26T09:55:39;5.72;;;3.22;;
47531;SDS011;33273;52.254;7.988;2023-06-26T09:58:10;7.38;;;3.50;;
47531;SDS011;33273;52.254;7.988;2023-06-26T10:00:40;5.77;;;3.23;;
47531;SDS011;33273;52.254;7.988;2023-06-26T10:03:07;6.30;;;2.97;;
47531;SDS011;33273;52.254;7.988;2023-06-26T10:05:33;5.40;;;3.00;;
47531;SDS011;33273;52.254;7.988;2023-06-26T10:08:00;5.85;;;2.88;;
47531;SDS011;33273;52.254;7.988;2023-06-26T10:10:27;6.22;;;2.85;;
47531;SDS011;33273;52.254;7.988;2023-06-26T10:12:56;5.53;;;2.83;;
47531;SDS011;33273;52.254;7.988;2023-06-26T10:15:26;4.53;;;2.60;;
47531;SDS011;33273;52.254;7.988;2023-06-26T10:17:55;5.43;;;2.70;;
47531;SDS011;33273;52.254;7.988;2023-06-26T10:20:22;5.22;;;2.53;;
47531;SDS011;33273;52.254;7.988;2023-06-26T10:22:51;5.15;;;2.70;;
47531;SDS011;33273;52.254;7.988;2023-06-26T10:25:19;5.05;;;2.55;;
47531;SDS011;33273;52.254;7.988;2023-06-26T10:27:51;5.05;;;2.20;;
47531;SDS011;33273;52.254;7.988;2023-06-26T10:30:23;5.83;;;2.70;;
47531;SDS011;33273;52.254;7.988;2023-06-26T10:32:52;4.82;;;2.42;;
47531;SDS011;33273;52.254;7.988;2023-06-26T10:35:18;5.50;;;2.47;;
47531;SDS011;33273;52.254;7.988;2023-06-26T10:37:48;6.38;;;2.75;;
47531;SDS011;33273;52.254;7.988;2023-06-26T10:40:21;3.87;;;2.10;;
47531;SDS011;33273;52.254;7.988;2023-06-26T10:43:11;6.75;;;2.60;;
47531;SDS011;33273;52.254;7.988;2023-06-26T10:45:45;5.80;;;2.75;;
47531;SDS011;33273;52.254;7.988;2023-06-26T10:48:15;5.03;;;2.40;;
47531;SDS011;33273;52.254;7.988;2023-06-26T10:50:41;5.85;;;2.58;;
47531;SDS011;33273;52.254;7.988;2023-06-26T10:55:56;5.43;;;2.40;;
47531;SDS011;33273;52.254;7.988;2023-06-26T10:58:29;5.30;;;2.60;;
47531;SDS011;33273;52.254;7.988;2023-06-26T11:04:03;5.00;;;2.42;;
47531;SDS011;33273;52.254;7.988;2023-06-26T11:06:28;5.10;;;2.38;;
47531;SDS011;33273;52.254;7.988;2023-06-26T11:09:17;4.97;;;2.40;;
47531;SDS011;33273;52.254;7.988;2023-06-26T11:14:20;4.68;;;2.30;;
47531;SDS011;33273;52.254;7.988;2023-06-26T11:16:47;6.78;;;2.42;;
47531;SDS011;33273;52.254;7.988;2023-06-26T11:19:16;5.32;;;2.42;;
47531;SDS011;33273;52.254;7.988;2023-06-26T11:21:43;5.53;;;2.53;;
47531;SDS011;33273;52.254;7.988;2023-06-26T11:24:11;4.10;;;2.60;;
47531;SDS011;33273;52.254;7.988;2023-06-26T11:26:38;5.03;;;2.47;;
47531;SDS011;33273;52.254;7.988;2023-06-26T11:29:07;5.10;;;2.60;;
47531;SDS011;33273;52.254;7.988;2023-06-26T11:31:35;4.77;;;2.40;;
47531;SDS011;33273;52.254;7.988;2023-06-26T11:34:07;6.38;;;2.83;;
47531;SDS011;33273;52.254;7.988;2023-06-26T11:36:34;4.43;;;2.40;;
47531;SDS011;33273;52.254;7.988;2023-06-26T11:39:02;5.57;;;2.40;;
47531;SDS011;33273;52.254;7.988;2023-06-26T11:41:32;4.97;;;2.63;;
47531;SDS011;33273;52.254;7.988;2023-06-26T11:44:00;3.70;;;2.30;;
47531;SDS011;33273;52.254;7.988;2023-06-26T11:46:31;5.35;;;2.58;;
47531;SDS011;33273;52.254;7.988;2023-06-26T11:48:57;4.68;;;2.50;;
47531;SDS011;33273;52.254;7.988;2023-06-26T11:51:23;5.57;;;2.67;;
47531;SDS011;33273;52.254;7.988;2023-06-26T11:53:51;5.35;;;2.65;;
47531;SDS011;33273;52.254;7.988;2023-06-26T11:56:18;4.75;;;2.38;;
47531;SDS011;33273;52.254;7.988;2023-06-26T12:01:32;6.70;;;2.20;;
47531;SDS011;33273;52.254;7.988;2023-06-26T12:04:04;5.63;;;2.55;;
47531;SDS011;33273;52.254;7.988;2023-06-26T12:06:34;4.47;;;2.20;;
47531;SDS011;33273;52.254;7.988;2023-06-26T12:09:02;4.25;;;2.35;;
47531;SDS011;33273;52.254;7.988;2023-06-26T12:11:30;4.75;;;2.42;;
47531;SDS011;33273;52.254;7.988;2023-06-26T12:13:57;4.55;;;2.50;;
47531;SDS011;33273;52.254;7.988;2023-06-26T12:16:24;5.07;;;2.30;;
47531;SDS011;33273;52.254;7.988;2023-06-26T12:18:58;3.67;;;2.40;;
47531;SDS011;33273;52.254;7.988;2023-06-26T12:21:49;4.88;;;2.20;;
47531;SDS011;33273;52.254;7.988;2023-06-26T12:24:19;5.72;;;2.45;;
47531;SDS011;33273;52.254;7.988;2023-06-26T12:26:51;4.93;;;2.50;;
47531;SDS011;33273;52.254;7.988;2023-06-26T12:29:33;5.80;;;2.72;;
47531;SDS011;33273;52.254;7.988;2023-06-26T12:31:59;7.53;;;2.65;;
47531;SDS011;33273;52.254;7.988;2023-06-26T12:34:32;5.18;;;2.70;;
47531;SDS011;33273;52.254;7.988;2023-06-26T12:37:00;5.30;;;2.70;;
47531;SDS011;33273;52.254;7.988;2023-06-26T12:39:27;6.85;;;2.63;;
47531;SDS011;33273;52.254;7.988;2023-06-26T12:41:55;5.13;;;2.75;;
47531;SDS011;33273;52.254;7.988;2023-06-26T12:44:26;5.88;;;2.70;;
47531;SDS011;33273;52.254;7.988;2023-06-26T12:46:57;5.90;;;2.80;;
47531;SDS011;33273;52.254;7.988;2023-06-26T12:49:45;7.03;;;2.70;;
47531;SDS011;33273;52.254;7.988;2023-06-26T12:52:14;5.85;;;2.65;;
47531;SDS011;33273;52.254;7.988;2023-06-26T12:54:43;5.65;;;2.50;;
47531;SDS011;33273;52.254;7.988;2023-06-26T12:57:09;6.68;;;3.13;;
47531;SDS011;33273;52.254;7.988;2023-06-26T12:59:36;8.27;;;3.50;;
47531;SDS011;33273;52.254;7.988;2023-06-26T13:02:03;5.13;;;2.63;;
47531;SDS011;33273;52.254;7.988;2023-06-26T13:04:29;5.97;;;2.67;;
47531;SDS011;33273;52.254;7.988;2023-06-26T13:06:56;5.75;;;2.53;;
47531;SDS011;33273;52.254;7.988;2023-06-26T13:09:23;5.67;;;2.53;;
47531;SDS011;33273;52.254;7.988;2023-06-26T13:11:54;5.70;;;2.45;;
47531;SDS011;33273;52.254;7.988;2023-06-26T13:14:21;5.35;;;2.78;;
47531;SDS011;33273;52.254;7.988;2023-06-26T13:16:47;8.02;;;2.63;;
47531;SDS011;33273;52.254;7.988;2023-06-26T13:19:14;6.60;;;2.87;;
47531;SDS011;33273;52.254;7.988;2023-06-26T13:21:39;4.30;;;2.60;;
47531;SDS011;33273;52.254;7.988;2023-06-26T13:24:05;7.70;;;2.70;;
47531;SDS011;33273;52.254;7.988;2023-06-26T13:26:31;5.50;;;2.33;;
47531;SDS011;33273;52.254;7.988;2023-06-26T13:28:57;4.85;;;2.47;;
47531;SDS011;33273;52.254;7.988;2023-06-26T13:31:24;5.07;;;2.40;;
47531;SDS011;33273;52.254;7.988;2023-06-26T13:33:49;5.57;;;2.10;;
47531;SDS011;33273;52.254;7.988;2023-06-26T13:36:17;5.43;;;2.58;;
47531;SDS011;33273;52.254;7.988;2023-06-26T13:38:44;8.18;;;2.60;;
47531;SDS011;33273;52.254;7.988;2023-06-26T13:41:10;4.50;;;2.03;;
47531;SDS011;33273;52.254;7.988;2023-06-26T13:43:36;5.10;;;2.00;;
47531;SDS011;33273;52.254;7.988;2023-06-26T13:46:02;4.70;;;1.90;;
47531;SDS011;33273;52.254;7.988;2023-06-26T13:48:28;3.78;;;1.90;;
47531;SDS011;33273;52.254;7.988;2023-06-26T13:50:55;4.68;;;1.67;;
47531;SDS011;33273;52.254;7.988;2023-06-26T13:53:21;3.15;;;1.45;;
47531;SDS011;33273;52.254;7.988;2023-06-26T13:55:47;5.10;;;1.90;;
47531;SDS011;33273;52.254;7.988;2023-06-26T13:58:14;4.30;;;1.90;;
47531;SDS011;33273;52.254;7.988;2023-06-26T14:00:40;4.47;;;1.75;;
47531;SDS011;33273;52.254;7.988;2023-06-26T14:03:09;6.00;;;1.83;;
47531;SDS011;33273;52.254;7.988;2023-06-26T14:05:37;4.07;;;1.73;;
47531;SDS011;33273;52.254;7.988;2023-06-26T14:08:04;4.80;;;1.80;;
47531;SDS011;33273;52.254;7.988;2023-06-26T14:10:31;3.80;;;1.85;;
47531;SDS011;33273;52.254;7.988;2023-06-26T14:12:58;3.92;;;1.80;;
47531;SDS011;33273;52.254;7.988;2023-06-26T14:15:25;5.22;;;1.50;;
47531;SDS011;33273;52.254;7.988;2023-06-26T14:17:51;5.47;;;2.00;;
47531;SDS011;33273;52.254;7.988;2023-06-26T14:20:18;4.38;;;1.60;;
47531;SDS011;33273;52.254;7.988;2023-06-26T14:22:46;4.22;;;1.50;;
47531;SDS011;33273;52.254;7.988;2023-06-26T14:25:12;3.38;;;1.60;;
47531;SDS011;33273;52.254;7.988;2023-06-26T14:27:39;5.30;;;1.80;;
47531;SDS011;33273;52.254;7.988;2023-06-26T14:30:05;4.90;;;2.10;;
47531;SDS011;33273;52.254;7.988;2023-06-26T14:32:32;5.93;;;1.73;;
47531;SDS011;33273;52.254;7.988;2023-06-26T14:34:59;6.57;;;1.70;;
47531;SDS011;33273;52.254;7.988;2023-06-26T14:37:25;4.53;;;1.85;;
47531;SDS011;33273;52.254;7.988;2023-06-26T14:39:52;4.70;;;1.63;;
47531;SDS011;33273;52.254;7.988;2023-06-26T14:42:18;4.43;;;1.60;;
47531;SDS011;33273;52.254;7.988;2023-06-26T14:44:43;5.15;;;1.85;;
47531;SDS011;33273;52.254;7.988;2023-06-26T14:47:12;5.00;;;1.38;;
47531;SDS011;33273;52.254;7.988;2023-06-26T14:49:39;3.63;;;1.40;;
47531;SDS011;33273;52.254;7.988;2023-06-26T14:52:06;3.80;;;1.67;;
47531;SDS011;33273;52.254;7.988;2023-06-26T14:54:38;4.03;;;1.63;;
47531;SDS011;33273;52.254;7.988;2023-06-26T14:57:07;5.20;;;1.50;;
47531;SDS011;33273;52.254;7.988;2023-06-26T14:59:33;5.15;;;1.60;;
47531;SDS011;33273;52.254;7.988;2023-06-26T15:01:59;3.75;;;1.40;;
47531;SDS011;33273;52.254;7.988;2023-06-26T15:04:25;3.28;;;1.23;;
47531;SDS011;33273;52.254;7.988;2023-06-26T15:06:51;3.85;;;1.40;;
47531;SDS011;33273;52.254;7.988;2023-06-26T15:09:17;3.58;;;1.38;;
47531;SDS011;33273;52.254;7.988;2023-06-26T15:11:43;4.93;;;1.40;;
47531;SDS011;33273;52.254;7.988;2023-06-26T15:14:10;3.47;;;1.42;;